Липки

Карта отелей и гостиниц, располагающихся рядом с аэропортом Липки :

Липки
Минск
Минская область 53° 54' 43.8012" N, 27° 42' 28.8612" E
Код аэродрома ИКАО
UMMI
Код аэродрома RU
УММИ
Координаты
N53.91217° E027.70802°
Превышение над уровнем моря
229
Основная полоса
01/19
Курс магнитный
010,3/190,3
Длина основной ВПП
726
Ширина основной ВПП
40
Покрытие основной ВПП
Твёрдое (бетон)
Освещение ВПП
По запросу
Тип: 
Аэродром
Класс аэродрома: 
Принадлежность: 
МЧС
Статус: 
Действующий
Сайт: 
http://avia.mchs.gov.by/
E-mail аэродрома: 
Страна: 
Беларусь
Регион: 
Минская область
Город: 
Минск
Дополнительная информация: 
Оператор: ГААСУ МЧС РБ. Согласно Акту обследования на соответствие нормам годности к эксплуатации аэродромов гос. авиации от 01.04.2013 длина ИВПП уменьшена до 726 м.

Найти трансфер

С помощью этой формы Вы можете найти трансфер из аэропорта Липки в город, аэропорт или вокзал:

Карта места

Javascript is required to view this map.

Погода в аэропортах:

Авиационная погода в аэропорту Байкал

Регион: 
Погода METAR: 
UIUU 281300Z 22002MPS 6000 2200NE FU NSC M14/M18 Q1027 R26/820550 NOSIG RMK QFE725/0967
Время наблюдения
2021-11-28T13:00:00Z
Температура C
-14.0
Точка росы
-18.0
Направление ветра
220
Скорость ветра (узлы)
4
Метео видимость
3.73
Явления погоды
FU
Условия полета
MVFR
Аэропорт подробнее: 

Авиационная погода в Симферополе

Погода METAR: 
URFF 281300Z 13002MPS 7000 -SHRA BKN033CB OVC063 13/13 Q1006 R19/290395 NOSIG
Время наблюдения
2021-11-28T13:00:00Z
Температура C
13.0
Точка росы
13.0
Направление ветра
130
Скорость ветра (узлы)
4
Метео видимость
4.35
Явления погоды
-SHRA
Условия полета
MVFR
Аэропорт подробнее: 

Авиационная погода в Борисполе

Регион: 
Погода METAR: 
UKBB 281300Z 12005MPS 0750 0500W R36R/1000D R36L/0900D PRFG OVC001 04/04 Q1003 TEMPO 0300 FG VV001
Время наблюдения
2021-11-28T13:00:00Z
Температура C
4.0
Точка росы
4.0
Направление ветра
120
Скорость ветра (узлы)
10
Метео видимость
0.47
Явления погоды
PRFG
Условия полета
LIFR
Аэропорт подробнее: 

Авиационная погода в Белгороде

Регион: 
Погода METAR: 
UUOB 281300Z 17002MPS 7000 2000E BR OVC012 07/06 Q1008 R11/290060 NOSIG
Время наблюдения
2021-11-28T13:00:00Z
Температура C
7.0
Точка росы
6.0
Направление ветра
170
Скорость ветра (узлы)
4
Метео видимость
4.35
Явления погоды
BR
Условия полета
MVFR
Аэропорт подробнее: